Terminal Aerodrome Forecast
Issued by NWS

Home | Current Version | Previous Version | Text Only | Print | Product List | Glossary On
Versions: 1 2 3 4 5 6 7 8 9 10 11 12 13 14 15 16 17 18 19 20
516
FTUS46 KHNX 191238 RRA
TAFMER
TAF
KMER 191238Z 1913/2012 15021G30KT P6SM VCSH BKN030
     FM191900 14009KT 6SM -SHRA SCT025 OVC045 PROB30 1922/2002 TSRA
      BKN040CB
     FM200200 14007KT 4SM HZ BR OVC050
     FM200900 13015G21KT 6SM -RA BR OVC050=

USA.gov is the U.S. government's official web portal to all federal, state and local government web resources and services.